LIMJ/GOA METAR and TAF weather

Enter ICAO airport designator
Station Type Date Time Source
LIMJ METAR 2021/05/14 07:50 UTC NOAA

LIMJ 140750Z 14010KT 9999 SCT012 BKN035 16/13 Q1008


Station Type Date Time Source
LIMJ Decoded METAR 2021/05/14 07:50 UTC NOAA

Genova / Sestri, Italy (LIMJ) 44-25N 008-51E 3M
May 14, 2021 - 03:50 AM EDT / 2021.05.14 0750 UTC
Wind: from the SE (140 degrees) at 12 MPH (10 KT):0
Visibility: greater than 7 mile(s):0
Sky conditions: mostly cloudy
Temperature: 60 F (16 C)
Dew Point: 55 F (13 C)
Relative Humidity: 82%
Pressure (altimeter): 29.77 in. Hg (1008 hPa)
ob: LIMJ 140750Z 14010KT 9999 SCT012 BKN035 16/13 Q1008
cycle: 8

Station Type Date Time Source
LIMJ TAF 2021/05/14 06:23 UTC NOAA

TAF LIMJ 140500Z 1406/1506 VRB05KT 9999 FEW030
BECMG 1408/1410 17013KT
TEMPO 1412/1418 SHRA
BECMG 1416/1418 VRB05KT

Example: see airport list